0WA8 weather

Childrens Hospital Emergency Heliport
Seattle, Washington, United States

Public forecast

Using degrees Fahrenheit for public forecast. Weather courtesy of forecast.io.

Closest aviation weather report (METAR) to Childrens Hospital Emergency Heliport

Closest report is Boeing Field King County International Airport, 8.1 nm (15.0 km) S. Retrieved 2020/07/02 11:53 UTC (1 hour ago):

KBFI 021153Z 18010G17KT 10SM OVC024 14/09 A2995 RMK AO2 SLP142 T01390089 10144 20139 50004

Closest aviation forecast (TAF) to Childrens Hospital Emergency Heliport

Closest forecast is Boeing Field King County International Airport, 8.1 nm (15.0 km) S. Retrieved 2020/07/02 12:36 UTC (22 minutes ago):

TAF KBFI 021134Z 0212/0312 19008G18KT P6SM SCT015 OVC020 FM021800 18010G18KT P6SM SCT015 OVC035 FM021900 20010KT P6SM OVC050 FM030100 22005KT P6SM OVC050